TAF

TERMINAL AERODROME FORECAST
STASIUN METEOROLOGI HANG NADIM BATAM
ADDS - METARS form results

Aviation Digital Data Service (ADDS)

Output produced by METARs form (0629 UTC 24 September 2021)
found at http://www.aviationweather.gov/metar/data/
 
METAR text: WIDD 240600Z 27008KT 9999 FEW013CB FEW014 29/24 Q1011 CB TO NE-SE, W-NW
Conditions at: WIDD (HANG NADIM , ID) observed 0600 UTC 24 September 2021
Temperature: 29.0°C (84°F)
Dewpoint: 24.0°C (75°F) [RH = 74%]
Pressure (altimeter): 29.85 inches Hg (1011.0 mb)
Winds: from the W (270 degrees) at 9 MPH (8 knots; 4.1 m/s)
Visibility: 6 or more miles (10+ km)
Ceiling: at least 12,000 feet AGL
Clouds: few clouds at 1300 feet AGL
few clouds at 1400 feet AGL
Weather: no significant weather observed at this time

METAR text: WIDD 240530Z 13009KT 9999 TS FEW013CB FEW014 32/24 Q1011 NOSIG RMK CB TO W-NW
Conditions at: WIDD (HANG NADIM , ID) observed 0530 UTC 24 September 2021
Temperature: 32.0°C (90°F)
Dewpoint: 24.0°C (75°F) [RH = 63%]
Pressure (altimeter): 29.85 inches Hg (1011.0 mb)
Winds: from the SE (130 degrees) at 10 MPH (9 knots; 4.6 m/s)
Visibility: 6 or more miles (10+ km)
Ceiling: at least 12,000 feet AGL
Clouds: few clouds at 1300 feet AGL
few clouds at 1400 feet AGL
Weather: TS  (thunderstorm)

Forecast for: WIDD (HANG NADIM , ID)
Text: TAF WIDD 240500Z 2406/2506 14010KT 9999 SCT014
Forecast period: 0600 UTC 24 September 2021 to 0600 UTC 25 September 2021
Forecast type: FROM: standard forecast or significant change
Winds: from the SE (140 degrees) at 12 MPH (10 knots; 5.1 m/s)
Visibility: 6 or more miles (10+ km)
Ceiling: at least 12,000 feet AGL
Clouds: scattered clouds at 1400 feet AGL
Weather: no significant weather forecast for this period

Informasi TAF dapat diakses juga di http://aviation.bmkg.go.id